<?xml version="1.0" encoding="UTF-8" standalone="no" ?>
<gpx xmlns="http://www.topografix.com/GPX/1/1" xmlns:xsi="http://www.w3.org/2001/XMLSchema-instance" xsi:schemaLocation="http://www.topografix.com/GPX/1/1 http://www.topografix.com/GPX/1/1/gpx.xsd" version="1.1" creator="VisuGPX - https://www.visugpx.com">
  <metadata>
    <name>Davrinche20101</name>
    <desc><![CDATA[la partie 1 des repérages]]></desc>
  </metadata>
  <trk>
    <name><![CDATA[--Pontgibaud-- OR-5370360:ser-fr03-l]]></name>
    <trkseg>
      <trkpt lat="45.81855" lon="2.87784">
        <ele>775</ele>
        <time>2015-10-17T14:42:27Z</time>
      </trkpt>
      <trkpt lat="45.81834" lon="2.87839">
        <ele>776</ele>
        <time>2015-10-17T14:44:27Z</time>
      </trkpt>
      <trkpt lat="45.81821" lon="2.87934">
        <ele>778</ele>
        <time>2015-10-17T14:46:27Z</time>
      </trkpt>
      <trkpt lat="45.81816" lon="2.8803">
        <ele>780</ele>
        <time>2015-10-17T14:48:27Z</time>
      </trkpt>
      <trkpt lat="45.81818" lon="2.88116">
        <ele>782</ele>
        <time>2015-10-17T14:50:27Z</time>
      </trkpt>
      <trkpt lat="45.81833" lon="2.88172">
        <ele>783</ele>
        <time>2015-10-17T14:52:27Z</time>
      </trkpt>
      <trkpt lat="45.81866" lon="2.88223">
        <ele>782</ele>
        <time>2015-10-17T14:54:27Z</time>
      </trkpt>
      <trkpt lat="45.81905" lon="2.88281">
        <ele>781</ele>
        <time>2015-10-17T14:56:27Z</time>
      </trkpt>
      <trkpt lat="45.81919" lon="2.88361">
        <ele>782</ele>
        <time>2015-10-17T14:58:27Z</time>
      </trkpt>
      <trkpt lat="45.81909" lon="2.88427">
        <ele>785</ele>
        <time>2015-10-17T15:00:27Z</time>
      </trkpt>
      <trkpt lat="45.81887" lon="2.88477">
        <ele>787</ele>
        <time>2015-10-17T15:02:27Z</time>
      </trkpt>
      <trkpt lat="45.81863" lon="2.88515">
        <ele>789</ele>
        <time>2015-10-17T15:04:27Z</time>
      </trkpt>
      <trkpt lat="45.81837" lon="2.88552">
        <ele>790</ele>
        <time>2015-10-17T15:06:27Z</time>
      </trkpt>
      <trkpt lat="45.81809" lon="2.88565">
        <ele>791</ele>
        <time>2015-10-17T15:08:27Z</time>
      </trkpt>
      <trkpt lat="45.8178" lon="2.88543">
        <ele>793</ele>
        <time>2015-10-17T15:10:27Z</time>
      </trkpt>
      <trkpt lat="45.81767" lon="2.88541">
        <ele>793</ele>
        <time>2015-10-17T15:12:27Z</time>
      </trkpt>
      <trkpt lat="45.81733" lon="2.88569">
        <ele>794</ele>
        <time>2015-10-17T15:14:27Z</time>
      </trkpt>
      <trkpt lat="45.81704" lon="2.88571">
        <ele>795</ele>
        <time>2015-10-17T15:16:27Z</time>
      </trkpt>
      <trkpt lat="45.81668" lon="2.88569">
        <ele>796</ele>
        <time>2015-10-17T15:18:27Z</time>
      </trkpt>
      <trkpt lat="45.81644" lon="2.88558">
        <ele>798</ele>
        <time>2015-10-17T15:20:27Z</time>
      </trkpt>
      <trkpt lat="45.81622" lon="2.88554">
        <ele>799</ele>
        <time>2015-10-17T15:22:27Z</time>
      </trkpt>
      <trkpt lat="45.81583" lon="2.8856">
        <ele>802</ele>
        <time>2015-10-17T15:24:27Z</time>
      </trkpt>
      <trkpt lat="45.8155" lon="2.88582">
        <ele>804</ele>
        <time>2015-10-17T15:26:27Z</time>
      </trkpt>
      <trkpt lat="45.81546" lon="2.88638">
        <ele>804</ele>
        <time>2015-10-17T15:28:27Z</time>
      </trkpt>
      <trkpt lat="45.8154" lon="2.88717">
        <ele>804</ele>
        <time>2015-10-17T15:30:27Z</time>
      </trkpt>
      <trkpt lat="45.81546" lon="2.88771">
        <ele>805</ele>
        <time>2015-10-17T15:32:27Z</time>
      </trkpt>
      <trkpt lat="45.81535" lon="2.8882">
        <ele>811</ele>
        <time>2015-10-17T15:34:27Z</time>
      </trkpt>
      <trkpt lat="45.81541" lon="2.88899">
        <ele>814</ele>
        <time>2015-10-17T15:36:27Z</time>
      </trkpt>
      <trkpt lat="45.8152" lon="2.88925">
        <ele>817</ele>
        <time>2015-10-17T15:38:27Z</time>
      </trkpt>
      <trkpt lat="45.81496" lon="2.88925">
        <ele>819</ele>
        <time>2015-10-17T15:40:27Z</time>
      </trkpt>
      <trkpt lat="45.81462" lon="2.88912">
        <ele>820</ele>
        <time>2015-10-17T15:42:27Z</time>
      </trkpt>
      <trkpt lat="45.81435" lon="2.88942">
        <ele>819</ele>
        <time>2015-10-17T15:44:27Z</time>
      </trkpt>
      <trkpt lat="45.81423" lon="2.88972">
        <ele>818</ele>
        <time>2015-10-17T15:46:27Z</time>
      </trkpt>
      <trkpt lat="45.81401" lon="2.88983">
        <ele>817</ele>
        <time>2015-10-17T15:48:27Z</time>
      </trkpt>
      <trkpt lat="45.81365" lon="2.88998">
        <ele>817</ele>
        <time>2015-10-17T15:50:27Z</time>
      </trkpt>
      <trkpt lat="45.81341" lon="2.89015">
        <ele>818</ele>
        <time>2015-10-17T15:52:27Z</time>
      </trkpt>
      <trkpt lat="45.81317" lon="2.89047">
        <ele>818</ele>
        <time>2015-10-17T15:54:27Z</time>
      </trkpt>
      <trkpt lat="45.81318" lon="2.8909">
        <ele>818</ele>
        <time>2015-10-17T15:56:27Z</time>
      </trkpt>
      <trkpt lat="45.81308" lon="2.89118">
        <ele>819</ele>
        <time>2015-10-17T15:58:27Z</time>
      </trkpt>
      <trkpt lat="45.81288" lon="2.89159">
        <ele>821</ele>
        <time>2015-10-17T16:00:27Z</time>
      </trkpt>
      <trkpt lat="45.81272" lon="2.89185">
        <ele>822</ele>
        <time>2015-10-17T16:02:27Z</time>
      </trkpt>
      <trkpt lat="45.81248" lon="2.89204">
        <ele>822</ele>
        <time>2015-10-17T16:04:27Z</time>
      </trkpt>
      <trkpt lat="45.81239" lon="2.89258">
        <ele>822</ele>
        <time>2015-10-17T16:06:27Z</time>
      </trkpt>
      <trkpt lat="45.81212" lon="2.89335">
        <ele>822</ele>
        <time>2015-10-17T16:08:27Z</time>
      </trkpt>
      <trkpt lat="45.81209" lon="2.89382">
        <ele>820</ele>
        <time>2015-10-17T16:10:27Z</time>
      </trkpt>
      <trkpt lat="45.81226" lon="2.89438">
        <ele>817</ele>
        <time>2015-10-17T16:12:27Z</time>
      </trkpt>
      <trkpt lat="45.8123" lon="2.89479">
        <ele>816</ele>
        <time>2015-10-17T16:14:27Z</time>
      </trkpt>
      <trkpt lat="45.81212" lon="2.89567">
        <ele>817</ele>
        <time>2015-10-17T16:16:27Z</time>
      </trkpt>
      <trkpt lat="45.81178" lon="2.89595">
        <ele>820</ele>
        <time>2015-10-17T16:18:27Z</time>
      </trkpt>
      <trkpt lat="45.8113" lon="2.89631">
        <ele>823</ele>
        <time>2015-10-17T16:20:27Z</time>
      </trkpt>
      <trkpt lat="45.8111" lon="2.89612">
        <ele>824</ele>
        <time>2015-10-17T16:22:27Z</time>
      </trkpt>
      <trkpt lat="45.81085" lon="2.89607">
        <ele>826</ele>
        <time>2015-10-17T16:24:27Z</time>
      </trkpt>
      <trkpt lat="45.81046" lon="2.89592">
        <ele>827</ele>
        <time>2015-10-17T16:26:27Z</time>
      </trkpt>
      <trkpt lat="45.8103" lon="2.89631">
        <ele>827</ele>
        <time>2015-10-17T16:28:27Z</time>
      </trkpt>
      <trkpt lat="45.81039" lon="2.89665">
        <ele>828</ele>
        <time>2015-10-17T16:30:27Z</time>
      </trkpt>
      <trkpt lat="45.81071" lon="2.89702">
        <ele>825</ele>
        <time>2015-10-17T16:32:27Z</time>
      </trkpt>
      <trkpt lat="45.81037" lon="2.8976">
        <ele>825</ele>
        <time>2015-10-17T16:34:27Z</time>
      </trkpt>
      <trkpt lat="45.81004" lon="2.89783">
        <ele>828</ele>
        <time>2015-10-17T16:36:27Z</time>
      </trkpt>
      <trkpt lat="45.80994" lon="2.89803">
        <ele>829</ele>
        <time>2015-10-17T16:38:27Z</time>
      </trkpt>
      <trkpt lat="45.81007" lon="2.89841">
        <ele>828</ele>
        <time>2015-10-17T16:40:27Z</time>
      </trkpt>
      <trkpt lat="45.81024" lon="2.89878">
        <ele>827</ele>
        <time>2015-10-17T16:42:27Z</time>
      </trkpt>
      <trkpt lat="45.81022" lon="2.89927">
        <ele>827</ele>
        <time>2015-10-17T16:44:27Z</time>
      </trkpt>
      <trkpt lat="45.81007" lon="2.89959">
        <ele>828</ele>
        <time>2015-10-17T16:46:27Z</time>
      </trkpt>
      <trkpt lat="45.80983" lon="2.89987">
        <ele>830</ele>
        <time>2015-10-17T16:48:27Z</time>
      </trkpt>
      <trkpt lat="45.80961" lon="2.90002">
        <ele>832</ele>
        <time>2015-10-17T16:50:27Z</time>
      </trkpt>
      <trkpt lat="45.80928" lon="2.90022">
        <ele>835</ele>
        <time>2015-10-17T16:52:27Z</time>
      </trkpt>
      <trkpt lat="45.80905" lon="2.90034">
        <ele>836</ele>
        <time>2015-10-17T16:54:27Z</time>
      </trkpt>
      <trkpt lat="45.80885" lon="2.90065">
        <ele>837</ele>
        <time>2015-10-17T16:56:27Z</time>
      </trkpt>
      <trkpt lat="45.80859" lon="2.90107">
        <ele>839</ele>
        <time>2015-10-17T16:58:27Z</time>
      </trkpt>
      <trkpt lat="45.80832" lon="2.9015">
        <ele>842</ele>
        <time>2015-10-17T17:00:27Z</time>
      </trkpt>
      <trkpt lat="45.80808" lon="2.90178">
        <ele>842</ele>
        <time>2015-10-17T17:02:27Z</time>
      </trkpt>
      <trkpt lat="45.80787" lon="2.90223">
        <ele>841</ele>
        <time>2015-10-17T17:04:27Z</time>
      </trkpt>
      <trkpt lat="45.80774" lon="2.90283">
        <ele>843</ele>
        <time>2015-10-17T17:06:27Z</time>
      </trkpt>
      <trkpt lat="45.80747" lon="2.90352">
        <ele>846</ele>
        <time>2015-10-17T17:08:27Z</time>
      </trkpt>
      <trkpt lat="45.8073" lon="2.90419">
        <ele>850</ele>
        <time>2015-10-17T17:10:27Z</time>
      </trkpt>
      <trkpt lat="45.80708" lon="2.90446">
        <ele>852</ele>
        <time>2015-10-17T17:12:27Z</time>
      </trkpt>
      <trkpt lat="45.80678" lon="2.90483">
        <ele>854</ele>
        <time>2015-10-17T17:14:27Z</time>
      </trkpt>
      <trkpt lat="45.80669" lon="2.90498">
        <ele>854</ele>
        <time>2015-10-17T17:16:27Z</time>
      </trkpt>
      <trkpt lat="45.80678" lon="2.90545">
        <ele>855</ele>
        <time>2015-10-17T17:18:27Z</time>
      </trkpt>
      <trkpt lat="45.80675" lon="2.90586">
        <ele>857</ele>
        <time>2015-10-17T17:20:27Z</time>
      </trkpt>
      <trkpt lat="45.80684" lon="2.90614">
        <ele>859</ele>
        <time>2015-10-17T17:22:27Z</time>
      </trkpt>
      <trkpt lat="45.8072" lon="2.90648">
        <ele>863</ele>
        <time>2015-10-17T17:24:27Z</time>
      </trkpt>
      <trkpt lat="45.80747" lon="2.90674">
        <ele>865</ele>
        <time>2015-10-17T17:26:27Z</time>
      </trkpt>
      <trkpt lat="45.80778" lon="2.90715">
        <ele>868</ele>
        <time>2015-10-17T17:28:27Z</time>
      </trkpt>
      <trkpt lat="45.80789" lon="2.9077">
        <ele>871</ele>
        <time>2015-10-17T17:30:27Z</time>
      </trkpt>
      <trkpt lat="45.80816" lon="2.90809">
        <ele>873</ele>
        <time>2015-10-17T17:32:27Z</time>
      </trkpt>
      <trkpt lat="45.80834" lon="2.90846">
        <ele>875</ele>
        <time>2015-10-17T17:34:27Z</time>
      </trkpt>
      <trkpt lat="45.80855" lon="2.90904">
        <ele>879</ele>
        <time>2015-10-17T17:36:27Z</time>
      </trkpt>
      <trkpt lat="45.80871" lon="2.90942">
        <ele>880</ele>
        <time>2015-10-17T17:38:27Z</time>
      </trkpt>
      <trkpt lat="45.80862" lon="2.90974">
        <ele>881</ele>
        <time>2015-10-17T17:40:27Z</time>
      </trkpt>
      <trkpt lat="45.80844" lon="2.90987">
        <ele>883</ele>
        <time>2015-10-17T17:42:27Z</time>
      </trkpt>
      <trkpt lat="45.80817" lon="2.91034">
        <ele>886</ele>
        <time>2015-10-17T17:44:27Z</time>
      </trkpt>
      <trkpt lat="45.80799" lon="2.91064">
        <ele>887</ele>
        <time>2015-10-17T17:46:27Z</time>
      </trkpt>
      <trkpt lat="45.80817" lon="2.9115">
        <ele>890</ele>
        <time>2015-10-17T17:48:27Z</time>
      </trkpt>
      <trkpt lat="45.80808" lon="2.91193">
        <ele>892</ele>
        <time>2015-10-17T17:50:27Z</time>
      </trkpt>
      <trkpt lat="45.80777" lon="2.91245">
        <ele>896</ele>
        <time>2015-10-17T17:52:27Z</time>
      </trkpt>
      <trkpt lat="45.80775" lon="2.91277">
        <ele>897</ele>
        <time>2015-10-17T17:54:27Z</time>
      </trkpt>
      <trkpt lat="45.80756" lon="2.91294">
        <ele>898</ele>
        <time>2015-10-17T17:56:27Z</time>
      </trkpt>
      <trkpt lat="45.80733" lon="2.91315">
        <ele>899</ele>
        <time>2015-10-17T17:58:27Z</time>
      </trkpt>
      <trkpt lat="45.8072" lon="2.91343">
        <ele>900</ele>
        <time>2015-10-17T18:00:27Z</time>
      </trkpt>
      <trkpt lat="45.80704" lon="2.91382">
        <ele>902</ele>
        <time>2015-10-17T18:02:27Z</time>
      </trkpt>
      <trkpt lat="45.8069" lon="2.91403">
        <ele>903</ele>
        <time>2015-10-17T18:04:27Z</time>
      </trkpt>
      <trkpt lat="45.80677" lon="2.91427">
        <ele>905</ele>
        <time>2015-10-17T18:06:27Z</time>
      </trkpt>
      <trkpt lat="45.80632" lon="2.91464">
        <ele>907</ele>
        <time>2015-10-17T18:08:27Z</time>
      </trkpt>
      <trkpt lat="45.80614" lon="2.91485">
        <ele>907</ele>
        <time>2015-10-17T18:10:27Z</time>
      </trkpt>
      <trkpt lat="45.8059" lon="2.91517">
        <ele>908</ele>
        <time>2015-10-17T18:12:27Z</time>
      </trkpt>
      <trkpt lat="45.80546" lon="2.91569">
        <ele>909</ele>
        <time>2015-10-17T18:14:27Z</time>
      </trkpt>
      <trkpt lat="45.80532" lon="2.91599">
        <ele>909</ele>
        <time>2015-10-17T18:16:27Z</time>
      </trkpt>
      <trkpt lat="45.80521" lon="2.91631">
        <ele>909</ele>
        <time>2015-10-17T18:18:27Z</time>
      </trkpt>
      <trkpt lat="45.8053" lon="2.91672">
        <ele>910</ele>
        <time>2015-10-17T18:20:27Z</time>
      </trkpt>
      <trkpt lat="45.80554" lon="2.91704">
        <ele>913</ele>
        <time>2015-10-17T18:22:27Z</time>
      </trkpt>
      <trkpt lat="45.80578" lon="2.91736">
        <ele>916</ele>
        <time>2015-10-17T18:24:27Z</time>
      </trkpt>
      <trkpt lat="45.80564" lon="2.918">
        <ele>919</ele>
        <time>2015-10-17T18:26:27Z</time>
      </trkpt>
      <trkpt lat="45.80584" lon="2.9183">
        <ele>922</ele>
        <time>2015-10-17T18:28:27Z</time>
      </trkpt>
      <trkpt lat="45.80594" lon="2.91863">
        <ele>922</ele>
        <time>2015-10-17T18:30:27Z</time>
      </trkpt>
      <trkpt lat="45.80611" lon="2.91867">
        <ele>922</ele>
        <time>2015-10-17T18:32:27Z</time>
      </trkpt>
      <trkpt lat="45.80602" lon="2.91925">
        <ele>922</ele>
        <time>2015-10-17T18:34:27Z</time>
      </trkpt>
      <trkpt lat="45.806" lon="2.91964">
        <ele>923</ele>
        <time>2015-10-17T18:36:27Z</time>
      </trkpt>
      <trkpt lat="45.80588" lon="2.92002">
        <ele>925</ele>
        <time>2015-10-17T18:38:27Z</time>
      </trkpt>
      <trkpt lat="45.80581" lon="2.92067">
        <ele>927</ele>
        <time>2015-10-17T18:40:27Z</time>
      </trkpt>
      <trkpt lat="45.80591" lon="2.92114">
        <ele>929</ele>
        <time>2015-10-17T18:42:27Z</time>
      </trkpt>
      <trkpt lat="45.80597" lon="2.9212">
        <ele>928</ele>
        <time>2015-10-17T18:44:27Z</time>
      </trkpt>
      <trkpt lat="45.80597" lon="2.92154">
        <ele>930</ele>
        <time>2015-10-17T18:46:27Z</time>
      </trkpt>
      <trkpt lat="45.80617" lon="2.92157">
        <ele>929</ele>
        <time>2015-10-17T18:48:27Z</time>
      </trkpt>
      <trkpt lat="45.80626" lon="2.92189">
        <ele>930</ele>
        <time>2015-10-17T18:50:27Z</time>
      </trkpt>
      <trkpt lat="45.8065" lon="2.92193">
        <ele>929</ele>
        <time>2015-10-17T18:52:27Z</time>
      </trkpt>
      <trkpt lat="45.80657" lon="2.92215">
        <ele>930</ele>
        <time>2015-10-17T18:54:27Z</time>
      </trkpt>
      <trkpt lat="45.80666" lon="2.92247">
        <ele>932</ele>
        <time>2015-10-17T18:56:27Z</time>
      </trkpt>
      <trkpt lat="45.80684" lon="2.92253">
        <ele>932</ele>
        <time>2015-10-17T18:58:27Z</time>
      </trkpt>
      <trkpt lat="45.80684" lon="2.92305">
        <ele>934</ele>
        <time>2015-10-17T19:00:27Z</time>
      </trkpt>
      <trkpt lat="45.80674" lon="2.92328">
        <ele>935</ele>
        <time>2015-10-17T19:02:27Z</time>
      </trkpt>
      <trkpt lat="45.80692" lon="2.92373">
        <ele>936</ele>
        <time>2015-10-17T19:04:27Z</time>
      </trkpt>
      <trkpt lat="45.80674" lon="2.92367">
        <ele>936</ele>
        <time>2015-10-17T19:06:27Z</time>
      </trkpt>
      <trkpt lat="45.80642" lon="2.92343">
        <ele>937</ele>
        <time>2015-10-17T19:08:27Z</time>
      </trkpt>
      <trkpt lat="45.80633" lon="2.9236">
        <ele>937</ele>
        <time>2015-10-17T19:10:27Z</time>
      </trkpt>
      <trkpt lat="45.80639" lon="2.92395">
        <ele>938</ele>
        <time>2015-10-17T19:12:27Z</time>
      </trkpt>
      <trkpt lat="45.80642" lon="2.9244">
        <ele>939</ele>
        <time>2015-10-17T19:14:27Z</time>
      </trkpt>
      <trkpt lat="45.80645" lon="2.92487">
        <ele>941</ele>
        <time>2015-10-17T19:16:27Z</time>
      </trkpt>
      <trkpt lat="45.80647" lon="2.92543">
        <ele>942</ele>
        <time>2015-10-17T19:18:27Z</time>
      </trkpt>
      <trkpt lat="45.80609" lon="2.92566">
        <ele>944</ele>
        <time>2015-10-17T19:20:27Z</time>
      </trkpt>
      <trkpt lat="45.80596" lon="2.92601">
        <ele>945</ele>
        <time>2015-10-17T19:22:27Z</time>
      </trkpt>
      <trkpt lat="45.80608" lon="2.92612">
        <ele>945</ele>
        <time>2015-10-17T19:24:27Z</time>
      </trkpt>
      <trkpt lat="45.80611" lon="2.9268">
        <ele>947</ele>
        <time>2015-10-17T19:26:27Z</time>
      </trkpt>
      <trkpt lat="45.806" lon="2.92693">
        <ele>947</ele>
        <time>2015-10-17T19:28:27Z</time>
      </trkpt>
      <trkpt lat="45.80609" lon="2.92732">
        <ele>947</ele>
        <time>2015-10-17T19:30:27Z</time>
      </trkpt>
      <trkpt lat="45.806" lon="2.92762">
        <ele>948</ele>
        <time>2015-10-17T19:32:27Z</time>
      </trkpt>
      <trkpt lat="45.80597" lon="2.92818">
        <ele>947</ele>
        <time>2015-10-17T19:34:27Z</time>
      </trkpt>
      <trkpt lat="45.80582" lon="2.9283">
        <ele>947</ele>
        <time>2015-10-17T19:36:27Z</time>
      </trkpt>
      <trkpt lat="45.80587" lon="2.92843">
        <ele>947</ele>
        <time>2015-10-17T19:38:27Z</time>
      </trkpt>
      <trkpt lat="45.80572" lon="2.92867">
        <ele>947</ele>
        <time>2015-10-17T19:40:27Z</time>
      </trkpt>
      <trkpt lat="45.80555" lon="2.92953">
        <ele>945</ele>
        <time>2015-10-17T19:42:27Z</time>
      </trkpt>
      <trkpt lat="45.8057" lon="2.92985">
        <ele>943</ele>
        <time>2015-10-17T19:44:27Z</time>
      </trkpt>
      <trkpt lat="45.80578" lon="2.9303">
        <ele>942</ele>
        <time>2015-10-17T19:46:27Z</time>
      </trkpt>
      <trkpt lat="45.80569" lon="2.93047">
        <ele>942</ele>
        <time>2015-10-17T19:48:27Z</time>
      </trkpt>
      <trkpt lat="45.80566" lon="2.93066">
        <ele>942</ele>
        <time>2015-10-17T19:50:27Z</time>
      </trkpt>
      <trkpt lat="45.80557" lon="2.93077">
        <ele>942</ele>
        <time>2015-10-17T19:52:27Z</time>
      </trkpt>
      <trkpt lat="45.80551" lon="2.93103">
        <ele>943</ele>
        <time>2015-10-17T19:54:27Z</time>
      </trkpt>
      <trkpt lat="45.80545" lon="2.9315">
        <ele>943</ele>
        <time>2015-10-17T19:56:27Z</time>
      </trkpt>
      <trkpt lat="45.80551" lon="2.93202">
        <ele>944</ele>
        <time>2015-10-17T19:58:27Z</time>
      </trkpt>
      <trkpt lat="45.80557" lon="2.93236">
        <ele>944</ele>
        <time>2015-10-17T20:00:27Z</time>
      </trkpt>
      <trkpt lat="45.80579" lon="2.93272">
        <ele>941</ele>
        <time>2015-10-17T20:02:27Z</time>
      </trkpt>
      <trkpt lat="45.80581" lon="2.93311">
        <ele>940</ele>
        <time>2015-10-17T20:04:27Z</time>
      </trkpt>
      <trkpt lat="45.80564" lon="2.93337">
        <ele>941</ele>
        <time>2015-10-17T20:06:27Z</time>
      </trkpt>
      <trkpt lat="45.80535" lon="2.93365">
        <ele>944</ele>
        <time>2015-10-17T20:08:27Z</time>
      </trkpt>
      <trkpt lat="45.80491" lon="2.9342">
        <ele>948</ele>
        <time>2015-10-17T20:10:27Z</time>
      </trkpt>
      <trkpt lat="45.80469" lon="2.93459">
        <ele>949</ele>
        <time>2015-10-17T20:12:27Z</time>
      </trkpt>
      <trkpt lat="45.80447" lon="2.93521">
        <ele>950</ele>
        <time>2015-10-17T20:14:27Z</time>
      </trkpt>
      <trkpt lat="45.80432" lon="2.93536">
        <ele>950</ele>
        <time>2015-10-17T20:16:27Z</time>
      </trkpt>
      <trkpt lat="45.80436" lon="2.93564">
        <ele>948</ele>
        <time>2015-10-17T20:18:27Z</time>
      </trkpt>
      <trkpt lat="45.80409" lon="2.93614">
        <ele>948</ele>
        <time>2015-10-17T20:20:27Z</time>
      </trkpt>
      <trkpt lat="45.80421" lon="2.93648">
        <ele>946</ele>
        <time>2015-10-17T20:22:27Z</time>
      </trkpt>
      <trkpt lat="45.8042" lon="2.93697">
        <ele>945</ele>
        <time>2015-10-17T20:24:27Z</time>
      </trkpt>
      <trkpt lat="45.80421" lon="2.93751">
        <ele>945</ele>
        <time>2015-10-17T20:26:27Z</time>
      </trkpt>
      <trkpt lat="45.80448" lon="2.938">
        <ele>942</ele>
        <time>2015-10-17T20:28:27Z</time>
      </trkpt>
      <trkpt lat="45.8047" lon="2.9385">
        <ele>938</ele>
        <time>2015-10-17T20:30:27Z</time>
      </trkpt>
      <trkpt lat="45.80484" lon="2.93908">
        <ele>934</ele>
        <time>2015-10-17T20:32:27Z</time>
      </trkpt>
      <trkpt lat="45.80494" lon="2.93961">
        <ele>932</ele>
        <time>2015-10-17T20:34:27Z</time>
      </trkpt>
      <trkpt lat="45.80496" lon="2.94011">
        <ele>931</ele>
        <time>2015-10-17T20:36:27Z</time>
      </trkpt>
      <trkpt lat="45.80505" lon="2.94073">
        <ele>930</ele>
        <time>2015-10-17T20:38:27Z</time>
      </trkpt>
      <trkpt lat="45.80545" lon="2.94146">
        <ele>929</ele>
        <time>2015-10-17T20:40:27Z</time>
      </trkpt>
      <trkpt lat="45.80511" lon="2.94223">
        <ele>935</ele>
        <time>2015-10-17T20:42:27Z</time>
      </trkpt>
      <trkpt lat="45.80481" lon="2.94305">
        <ele>940</ele>
        <time>2015-10-17T20:44:27Z</time>
      </trkpt>
      <trkpt lat="45.80454" lon="2.94382">
        <ele>943</ele>
        <time>2015-10-17T20:46:27Z</time>
      </trkpt>
      <trkpt lat="45.80439" lon="2.94433">
        <ele>944</ele>
        <time>2015-10-17T20:48:27Z</time>
      </trkpt>
      <trkpt lat="45.80415" lon="2.94457">
        <ele>947</ele>
        <time>2015-10-17T20:50:27Z</time>
      </trkpt>
      <trkpt lat="45.80381" lon="2.94493">
        <ele>953</ele>
        <time>2015-10-17T20:52:27Z</time>
      </trkpt>
      <trkpt lat="45.80363" lon="2.94556">
        <ele>957</ele>
        <time>2015-10-17T20:54:27Z</time>
      </trkpt>
      <trkpt lat="45.80325" lon="2.94674">
        <ele>961</ele>
        <time>2015-10-17T20:56:27Z</time>
      </trkpt>
      <trkpt lat="45.80291" lon="2.94725">
        <ele>967</ele>
        <time>2015-10-17T20:58:27Z</time>
      </trkpt>
      <trkpt lat="45.80263" lon="2.94785">
        <ele>970</ele>
        <time>2015-10-17T21:00:27Z</time>
      </trkpt>
      <trkpt lat="45.80227" lon="2.94798">
        <ele>978</ele>
        <time>2015-10-17T21:02:27Z</time>
      </trkpt>
      <trkpt lat="45.80204" lon="2.94796">
        <ele>985</ele>
        <time>2015-10-17T21:04:27Z</time>
      </trkpt>
      <trkpt lat="45.80161" lon="2.94837">
        <ele>991</ele>
        <time>2015-10-17T21:06:27Z</time>
      </trkpt>
      <trkpt lat="45.80114" lon="2.94882">
        <ele>997</ele>
        <time>2015-10-17T21:08:27Z</time>
      </trkpt>
      <trkpt lat="45.80059" lon="2.94916">
        <ele>1002</ele>
        <time>2015-10-17T21:10:27Z</time>
      </trkpt>
      <trkpt lat="45.80028" lon="2.9492">
        <ele>1007</ele>
        <time>2015-10-17T21:12:27Z</time>
      </trkpt>
      <trkpt lat="45.79989" lon="2.94929">
        <ele>1013</ele>
        <time>2015-10-17T21:14:27Z</time>
      </trkpt>
      <trkpt lat="45.7998" lon="2.94932">
        <ele>1014</ele>
        <time>2015-10-17T21:16:27Z</time>
      </trkpt>
      <trkpt lat="45.79957" lon="2.94949">
        <ele>1016</ele>
        <time>2015-10-17T21:18:27Z</time>
      </trkpt>
      <trkpt lat="45.79947" lon="2.9496">
        <ele>1016</ele>
        <time>2015-10-17T21:20:27Z</time>
      </trkpt>
      <trkpt lat="45.79932" lon="2.94968">
        <ele>1018</ele>
        <time>2015-10-17T21:22:27Z</time>
      </trkpt>
      <trkpt lat="45.79908" lon="2.94981">
        <ele>1018</ele>
        <time>2015-10-17T21:24:27Z</time>
      </trkpt>
      <trkpt lat="45.79906" lon="2.95009">
        <ele>1015</ele>
        <time>2015-10-17T21:26:27Z</time>
      </trkpt>
      <trkpt lat="45.79942" lon="2.95048">
        <ele>1010</ele>
        <time>2015-10-17T21:28:27Z</time>
      </trkpt>
      <trkpt lat="45.79969" lon="2.9508">
        <ele>1006</ele>
        <time>2015-10-17T21:30:27Z</time>
      </trkpt>
      <trkpt lat="45.8002" lon="2.95091">
        <ele>1002</ele>
        <time>2015-10-17T21:32:27Z</time>
      </trkpt>
      <trkpt lat="45.80064" lon="2.95095">
        <ele>999</ele>
        <time>2015-10-17T21:34:27Z</time>
      </trkpt>
      <trkpt lat="45.80086" lon="2.95131">
        <ele>998</ele>
        <time>2015-10-17T21:36:27Z</time>
      </trkpt>
      <trkpt lat="45.80129" lon="2.95112">
        <ele>995</ele>
        <time>2015-10-17T21:38:27Z</time>
      </trkpt>
      <trkpt lat="45.80185" lon="2.95144">
        <ele>990</ele>
        <time>2015-10-17T21:40:27Z</time>
      </trkpt>
      <trkpt lat="45.80234" lon="2.95144">
        <ele>984</ele>
        <time>2015-10-17T21:42:27Z</time>
      </trkpt>
      <trkpt lat="45.80282" lon="2.95133">
        <ele>980</ele>
        <time>2015-10-17T21:44:27Z</time>
      </trkpt>
      <trkpt lat="45.80324" lon="2.95112">
        <ele>976</ele>
        <time>2015-10-17T21:46:27Z</time>
      </trkpt>
      <trkpt lat="45.80367" lon="2.9508">
        <ele>971</ele>
        <time>2015-10-17T21:48:27Z</time>
      </trkpt>
      <trkpt lat="45.80433" lon="2.95039">
        <ele>961</ele>
        <time>2015-10-17T21:50:27Z</time>
      </trkpt>
      <trkpt lat="45.80487" lon="2.95005">
        <ele>957</ele>
        <time>2015-10-17T21:52:27Z</time>
      </trkpt>
      <trkpt lat="45.8053" lon="2.94983">
        <ele>954</ele>
        <time>2015-10-17T21:54:27Z</time>
      </trkpt>
      <trkpt lat="45.80578" lon="2.95024">
        <ele>956</ele>
        <time>2015-10-17T21:56:27Z</time>
      </trkpt>
      <trkpt lat="45.80625" lon="2.95018">
        <ele>956</ele>
        <time>2015-10-17T21:58:27Z</time>
      </trkpt>
      <trkpt lat="45.80665" lon="2.95039">
        <ele>956</ele>
        <time>2015-10-17T22:00:27Z</time>
      </trkpt>
      <trkpt lat="45.80689" lon="2.95088">
        <ele>959</ele>
        <time>2015-10-17T22:02:27Z</time>
      </trkpt>
      <trkpt lat="45.80711" lon="2.95144">
        <ele>963</ele>
        <time>2015-10-17T22:04:27Z</time>
      </trkpt>
      <trkpt lat="45.80741" lon="2.95196">
        <ele>965</ele>
        <time>2015-10-17T22:06:27Z</time>
      </trkpt>
      <trkpt lat="45.80764" lon="2.95266">
        <ele>967</ele>
        <time>2015-10-17T22:08:27Z</time>
      </trkpt>
      <trkpt lat="45.8078" lon="2.95322">
        <ele>967</ele>
        <time>2015-10-17T22:10:27Z</time>
      </trkpt>
      <trkpt lat="45.80791" lon="2.95372">
        <ele>968</ele>
        <time>2015-10-17T22:12:27Z</time>
      </trkpt>
      <trkpt lat="45.80806" lon="2.9544">
        <ele>968</ele>
        <time>2015-10-17T22:14:27Z</time>
      </trkpt>
      <trkpt lat="45.8082" lon="2.95507">
        <ele>968</ele>
        <time>2015-10-17T22:16:27Z</time>
      </trkpt>
      <trkpt lat="45.80853" lon="2.95575">
        <ele>969</ele>
        <time>2015-10-17T22:18:27Z</time>
      </trkpt>
      <trkpt lat="45.80894" lon="2.95631">
        <ele>973</ele>
        <time>2015-10-17T22:20:27Z</time>
      </trkpt>
      <trkpt lat="45.80939" lon="2.95689">
        <ele>975</ele>
        <time>2015-10-17T22:22:27Z</time>
      </trkpt>
      <trkpt lat="45.80967" lon="2.95745">
        <ele>976</ele>
        <time>2015-10-17T22:24:27Z</time>
      </trkpt>
      <trkpt lat="45.8101" lon="2.95811">
        <ele>977</ele>
        <time>2015-10-17T22:26:27Z</time>
      </trkpt>
      <trkpt lat="45.81018" lon="2.9588">
        <ele>979</ele>
        <time>2015-10-17T22:28:27Z</time>
      </trkpt>
      <trkpt lat="45.81025" lon="2.95966">
        <ele>980</ele>
        <time>2015-10-17T22:30:27Z</time>
      </trkpt>
      <trkpt lat="45.81036" lon="2.96024">
        <ele>981</ele>
        <time>2015-10-17T22:32:27Z</time>
      </trkpt>
      <trkpt lat="45.81046" lon="2.96118">
        <ele>984</ele>
        <time>2015-10-17T22:34:27Z</time>
      </trkpt>
      <trkpt lat="45.81037" lon="2.96159">
        <ele>985</ele>
        <time>2015-10-17T22:36:27Z</time>
      </trkpt>
      <trkpt lat="45.81028" lon="2.96202">
        <ele>985</ele>
        <time>2015-10-17T22:38:27Z</time>
      </trkpt>
      <trkpt lat="45.81027" lon="2.96292">
        <ele>982</ele>
        <time>2015-10-17T22:40:27Z</time>
      </trkpt>
      <trkpt lat="45.81031" lon="2.96365">
        <ele>981</ele>
        <time>2015-10-17T22:42:27Z</time>
      </trkpt>
      <trkpt lat="45.81064" lon="2.96394">
        <ele>980</ele>
        <time>2015-10-17T22:44:27Z</time>
      </trkpt>
      <trkpt lat="45.81078" lon="2.96343">
        <ele>978</ele>
        <time>2015-10-17T22:46:27Z</time>
      </trkpt>
      <trkpt lat="45.8109" lon="2.96287">
        <ele>979</ele>
        <time>2015-10-17T22:48:27Z</time>
      </trkpt>
      <trkpt lat="45.81108" lon="2.9622">
        <ele>981</ele>
        <time>2015-10-17T22:50:27Z</time>
      </trkpt>
      <trkpt lat="45.81164" lon="2.96255">
        <ele>977</ele>
        <time>2015-10-17T22:52:27Z</time>
      </trkpt>
      <trkpt lat="45.81217" lon="2.96276">
        <ele>974</ele>
        <time>2015-10-17T22:54:27Z</time>
      </trkpt>
      <trkpt lat="45.81256" lon="2.96304">
        <ele>972</ele>
        <time>2015-10-17T22:56:27Z</time>
      </trkpt>
      <trkpt lat="45.8128" lon="2.96346">
        <ele>972</ele>
        <time>2015-10-17T22:58:27Z</time>
      </trkpt>
      <trkpt lat="45.81313" lon="2.96408">
        <ele>974</ele>
        <time>2015-10-17T23:00:27Z</time>
      </trkpt>
      <trkpt lat="45.81345" lon="2.96477">
        <ele>974</ele>
        <time>2015-10-17T23:02:27Z</time>
      </trkpt>
      <trkpt lat="45.81377" lon="2.96532">
        <ele>972</ele>
        <time>2015-10-17T23:04:27Z</time>
      </trkpt>
      <trkpt lat="45.81396" lon="2.96593">
        <ele>971</ele>
        <time>2015-10-17T23:06:27Z</time>
      </trkpt>
      <trkpt lat="45.81429" lon="2.96642">
        <ele>970</ele>
        <time>2015-10-17T23:08:27Z</time>
      </trkpt>
      <trkpt lat="45.8145" lon="2.96685">
        <ele>969</ele>
        <time>2015-10-17T23:10:27Z</time>
      </trkpt>
      <trkpt lat="45.81473" lon="2.96747">
        <ele>968</ele>
        <time>2015-10-17T23:12:27Z</time>
      </trkpt>
      <trkpt lat="45.81502" lon="2.96816">
        <ele>970</ele>
        <time>2015-10-17T23:14:27Z</time>
      </trkpt>
      <trkpt lat="45.81532" lon="2.96874">
        <ele>972</ele>
        <time>2015-10-17T23:16:27Z</time>
      </trkpt>
      <trkpt lat="45.81552" lon="2.96932">
        <ele>973</ele>
        <time>2015-10-17T23:18:27Z</time>
      </trkpt>
      <trkpt lat="45.81525" lon="2.96981">
        <ele>974</ele>
        <time>2015-10-17T23:20:27Z</time>
      </trkpt>
      <trkpt lat="45.81491" lon="2.97032">
        <ele>976</ele>
        <time>2015-10-17T23:22:27Z</time>
      </trkpt>
      <trkpt lat="45.81461" lon="2.97075">
        <ele>976</ele>
        <time>2015-10-17T23:24:27Z</time>
      </trkpt>
      <trkpt lat="45.81434" lon="2.97097">
        <ele>976</ele>
        <time>2015-10-17T23:26:27Z</time>
      </trkpt>
      <trkpt lat="45.81408" lon="2.97127">
        <ele>976</ele>
        <time>2015-10-17T23:28:27Z</time>
      </trkpt>
      <trkpt lat="45.81378" lon="2.97155">
        <ele>975</ele>
        <time>2015-10-17T23:30:27Z</time>
      </trkpt>
      <trkpt lat="45.81342" lon="2.97178">
        <ele>973</ele>
        <time>2015-10-17T23:32:27Z</time>
      </trkpt>
      <trkpt lat="45.8131" lon="2.97183">
        <ele>973</ele>
        <time>2015-10-17T23:34:27Z</time>
      </trkpt>
      <trkpt lat="45.81275" lon="2.97189">
        <ele>974</ele>
        <time>2015-10-17T23:36:27Z</time>
      </trkpt>
      <trkpt lat="45.81251" lon="2.97196">
        <ele>974</ele>
        <time>2015-10-17T23:38:27Z</time>
      </trkpt>
      <trkpt lat="45.81211" lon="2.97208">
        <ele>977</ele>
        <time>2015-10-17T23:40:27Z</time>
      </trkpt>
      <trkpt lat="45.81164" lon="2.97223">
        <ele>978</ele>
        <time>2015-10-17T23:42:27Z</time>
      </trkpt>
      <trkpt lat="45.81123" lon="2.97232">
        <ele>977</ele>
        <time>2015-10-17T23:44:27Z</time>
      </trkpt>
      <trkpt lat="45.81084" lon="2.97234">
        <ele>977</ele>
        <time>2015-10-17T23:46:27Z</time>
      </trkpt>
      <trkpt lat="45.81066" lon="2.97262">
        <ele>974</ele>
        <time>2015-10-17T23:48:27Z</time>
      </trkpt>
      <trkpt lat="45.81118" lon="2.9729">
        <ele>973</ele>
        <time>2015-10-17T23:50:27Z</time>
      </trkpt>
      <trkpt lat="45.81172" lon="2.9732">
        <ele>971</ele>
        <time>2015-10-17T23:52:27Z</time>
      </trkpt>
      <trkpt lat="45.81229" lon="2.9735">
        <ele>971</ele>
        <time>2015-10-17T23:54:27Z</time>
      </trkpt>
      <trkpt lat="45.81281" lon="2.97382">
        <ele>970</ele>
        <time>2015-10-17T23:56:27Z</time>
      </trkpt>
      <trkpt lat="45.81338" lon="2.97414">
        <ele>969</ele>
        <time>2015-10-17T23:58:27Z</time>
      </trkpt>
      <trkpt lat="45.81404" lon="2.97438">
        <ele>967</ele>
        <time>2015-10-18T00:00:27Z</time>
      </trkpt>
      <trkpt lat="45.81485" lon="2.97462">
        <ele>964</ele>
        <time>2015-10-18T00:02:27Z</time>
      </trkpt>
      <trkpt lat="45.81534" lon="2.97477">
        <ele>962</ele>
        <time>2015-10-18T00:04:27Z</time>
      </trkpt>
      <trkpt lat="45.81601" lon="2.97517">
        <ele>960</ele>
        <time>2015-10-18T00:06:27Z</time>
      </trkpt>
      <trkpt lat="45.81668" lon="2.97567">
        <ele>958</ele>
        <time>2015-10-18T00:08:27Z</time>
      </trkpt>
      <trkpt lat="45.81703" lon="2.97627">
        <ele>962</ele>
        <time>2015-10-18T00:10:27Z</time>
      </trkpt>
      <trkpt lat="45.81734" lon="2.97702">
        <ele>967</ele>
        <time>2015-10-18T00:12:27Z</time>
      </trkpt>
      <trkpt lat="45.81761" lon="2.97749">
        <ele>967</ele>
        <time>2015-10-18T00:14:27Z</time>
      </trkpt>
      <trkpt lat="45.81776" lon="2.97805">
        <ele>974</ele>
        <time>2015-10-18T00:16:27Z</time>
      </trkpt>
      <trkpt lat="45.81778" lon="2.97856">
        <ele>981</ele>
        <time>2015-10-18T00:18:27Z</time>
      </trkpt>
      <trkpt lat="45.81781" lon="2.97906">
        <ele>988</ele>
        <time>2015-10-18T00:20:27Z</time>
      </trkpt>
      <trkpt lat="45.81799" lon="2.97951">
        <ele>993</ele>
        <time>2015-10-18T00:22:27Z</time>
      </trkpt>
      <trkpt lat="45.81805" lon="2.98009">
        <ele>999</ele>
        <time>2015-10-18T00:24:27Z</time>
      </trkpt>
      <trkpt lat="45.81818" lon="2.98069">
        <ele>998</ele>
        <time>2015-10-18T00:26:27Z</time>
      </trkpt>
      <trkpt lat="45.81824" lon="2.98116">
        <ele>997</ele>
        <time>2015-10-18T00:28:27Z</time>
      </trkpt>
      <trkpt lat="45.81824" lon="2.9817">
        <ele>998</ele>
        <time>2015-10-18T00:30:27Z</time>
      </trkpt>
      <trkpt lat="45.81818" lon="2.98219">
        <ele>1003</ele>
        <time>2015-10-18T00:32:27Z</time>
      </trkpt>
      <trkpt lat="45.81809" lon="2.98273">
        <ele>1008</ele>
        <time>2015-10-18T00:34:27Z</time>
      </trkpt>
      <trkpt lat="45.81796" lon="2.9832">
        <ele>1013</ele>
        <time>2015-10-18T00:36:27Z</time>
      </trkpt>
      <trkpt lat="45.81781" lon="2.9838">
        <ele>1009</ele>
        <time>2015-10-18T00:38:27Z</time>
      </trkpt>
      <trkpt lat="45.81784" lon="2.9844">
        <ele>998</ele>
        <time>2015-10-18T00:40:27Z</time>
      </trkpt>
      <trkpt lat="45.81773" lon="2.98492">
        <ele>985</ele>
        <time>2015-10-18T00:42:27Z</time>
      </trkpt>
      <trkpt lat="45.81784" lon="2.98543">
        <ele>971</ele>
        <time>2015-10-18T00:44:27Z</time>
      </trkpt>
      <trkpt lat="45.81779" lon="2.98603">
        <ele>956</ele>
        <time>2015-10-18T00:46:27Z</time>
      </trkpt>
      <trkpt lat="45.81739" lon="2.98612">
        <ele>955</ele>
        <time>2015-10-18T00:48:27Z</time>
      </trkpt>
      <trkpt lat="45.81736" lon="2.98635">
        <ele>952</ele>
        <time>2015-10-18T00:50:27Z</time>
      </trkpt>
      <trkpt lat="45.81781" lon="2.9865">
        <ele>947</ele>
        <time>2015-10-18T00:52:27Z</time>
      </trkpt>
      <trkpt lat="45.81827" lon="2.9868">
        <ele>938</ele>
        <time>2015-10-18T00:54:27Z</time>
      </trkpt>
      <trkpt lat="45.81876" lon="2.98717">
        <ele>926</ele>
        <time>2015-10-18T00:56:27Z</time>
      </trkpt>
      <trkpt lat="45.8184" lon="2.98745">
        <ele>922</ele>
        <time>2015-10-18T00:58:27Z</time>
      </trkpt>
      <trkpt lat="45.81826" lon="2.98775">
        <ele>920</ele>
        <time>2015-10-18T01:00:27Z</time>
      </trkpt>
      <trkpt lat="45.81784" lon="2.98835">
        <ele>920</ele>
        <time>2015-10-18T01:02:27Z</time>
      </trkpt>
      <trkpt lat="45.81839" lon="2.98835">
        <ele>913</ele>
        <time>2015-10-18T01:04:27Z</time>
      </trkpt>
      <trkpt lat="45.81908" lon="2.98831">
        <ele>906</ele>
        <time>2015-10-18T01:06:27Z</time>
      </trkpt>
      <trkpt lat="45.81965" lon="2.98822">
        <ele>904</ele>
        <time>2015-10-18T01:08:27Z</time>
      </trkpt>
      <trkpt lat="45.82012" lon="2.98809">
        <ele>904</ele>
        <time>2015-10-18T01:10:27Z</time>
      </trkpt>
      <trkpt lat="45.82069" lon="2.98779">
        <ele>904</ele>
        <time>2015-10-18T01:12:27Z</time>
      </trkpt>
      <trkpt lat="45.82105" lon="2.98747">
        <ele>904</ele>
        <time>2015-10-18T01:14:27Z</time>
      </trkpt>
      <trkpt lat="45.8214" lon="2.9873">
        <ele>906</ele>
        <time>2015-10-18T01:16:27Z</time>
      </trkpt>
      <trkpt lat="45.82137" lon="2.98749">
        <ele>904</ele>
        <time>2015-10-18T01:18:27Z</time>
      </trkpt>
      <trkpt lat="45.82114" lon="2.98764">
        <ele>904</ele>
        <time>2015-10-18T01:20:27Z</time>
      </trkpt>
      <trkpt lat="45.82102" lon="2.98794">
        <ele>905</ele>
        <time>2015-10-18T01:22:27Z</time>
      </trkpt>
      <trkpt lat="45.82075" lon="2.98805">
        <ele>904</ele>
        <time>2015-10-18T01:24:27Z</time>
      </trkpt>
      <trkpt lat="45.82054" lon="2.98833">
        <ele>904</ele>
        <time>2015-10-18T01:26:27Z</time>
      </trkpt>
      <trkpt lat="45.82032" lon="2.98876">
        <ele>904</ele>
        <time>2015-10-18T01:28:27Z</time>
      </trkpt>
      <trkpt lat="45.82017" lon="2.9894">
        <ele>906</ele>
        <time>2015-10-18T01:30:27Z</time>
      </trkpt>
      <trkpt lat="45.82006" lon="2.99004">
        <ele>908</ele>
        <time>2015-10-18T01:32:27Z</time>
      </trkpt>
      <trkpt lat="45.81981" lon="2.99054">
        <ele>907</ele>
        <time>2015-10-18T01:34:27Z</time>
      </trkpt>
      <trkpt lat="45.81953" lon="2.99092">
        <ele>907</ele>
        <time>2015-10-18T01:36:27Z</time>
      </trkpt>
      <trkpt lat="45.81923" lon="2.99127">
        <ele>907</ele>
        <time>2015-10-18T01:38:27Z</time>
      </trkpt>
      <trkpt lat="45.81891" lon="2.99167">
        <ele>907</ele>
        <time>2015-10-18T01:40:27Z</time>
      </trkpt>
      <trkpt lat="45.81858" lon="2.992">
        <ele>908</ele>
        <time>2015-10-18T01:42:27Z</time>
      </trkpt>
      <trkpt lat="45.81828" lon="2.99249">
        <ele>906</ele>
        <time>2015-10-18T01:44:27Z</time>
      </trkpt>
      <trkpt lat="45.81805" lon="2.99285">
        <ele>906</ele>
        <time>2015-10-18T01:46:27Z</time>
      </trkpt>
      <trkpt lat="45.81778" lon="2.99339">
        <ele>904</ele>
        <time>2015-10-18T01:48:27Z</time>
      </trkpt>
      <trkpt lat="45.81767" lon="2.99373">
        <ele>904</ele>
        <time>2015-10-18T01:50:27Z</time>
      </trkpt>
      <trkpt lat="45.81743" lon="2.99427">
        <ele>905</ele>
        <time>2015-10-18T01:52:27Z</time>
      </trkpt>
      <trkpt lat="45.81707" lon="2.99414">
        <ele>909</ele>
        <time>2015-10-18T01:54:27Z</time>
      </trkpt>
      <trkpt lat="45.81674" lon="2.99403">
        <ele>913</ele>
        <time>2015-10-18T01:56:27Z</time>
      </trkpt>
      <trkpt lat="45.8164" lon="2.99403">
        <ele>914</ele>
        <time>2015-10-18T01:58:27Z</time>
      </trkpt>
      <trkpt lat="45.81613" lon="2.99412">
        <ele>915</ele>
        <time>2015-10-18T02:00:27Z</time>
      </trkpt>
      <trkpt lat="45.81567" lon="2.99423">
        <ele>917</ele>
        <time>2015-10-18T02:02:27Z</time>
      </trkpt>
      <trkpt lat="45.81523" lon="2.99399">
        <ele>920</ele>
        <time>2015-10-18T02:04:27Z</time>
      </trkpt>
      <trkpt lat="45.81491" lon="2.99403">
        <ele>923</ele>
        <time>2015-10-18T02:06:27Z</time>
      </trkpt>
      <trkpt lat="45.81453" lon="2.9941">
        <ele>925</ele>
        <time>2015-10-18T02:08:27Z</time>
      </trkpt>
      <trkpt lat="45.81405" lon="2.99419">
        <ele>929</ele>
        <time>2015-10-18T02:10:27Z</time>
      </trkpt>
      <trkpt lat="45.81366" lon="2.99423">
        <ele>931</ele>
        <time>2015-10-18T02:12:27Z</time>
      </trkpt>
      <trkpt lat="45.81314" lon="2.99431">
        <ele>934</ele>
        <time>2015-10-18T02:14:27Z</time>
      </trkpt>
      <trkpt lat="45.81272" lon="2.99444">
        <ele>937</ele>
        <time>2015-10-18T02:16:27Z</time>
      </trkpt>
      <trkpt lat="45.81239" lon="2.99446">
        <ele>939</ele>
        <time>2015-10-18T02:18:27Z</time>
      </trkpt>
      <trkpt lat="45.81208" lon="2.99451">
        <ele>942</ele>
        <time>2015-10-18T02:20:27Z</time>
      </trkpt>
      <trkpt lat="45.81161" lon="2.99446">
        <ele>945</ele>
        <time>2015-10-18T02:22:27Z</time>
      </trkpt>
      <trkpt lat="45.81121" lon="2.99431">
        <ele>949</ele>
        <time>2015-10-18T02:24:27Z</time>
      </trkpt>
      <trkpt lat="45.81081" lon="2.99416">
        <ele>953</ele>
        <time>2015-10-18T02:26:27Z</time>
      </trkpt>
      <trkpt lat="45.81045" lon="2.99393">
        <ele>955</ele>
        <time>2015-10-18T02:28:27Z</time>
      </trkpt>
      <trkpt lat="45.81001" lon="2.99386">
        <ele>958</ele>
        <time>2015-10-18T02:30:27Z</time>
      </trkpt>
      <trkpt lat="45.80967" lon="2.99382">
        <ele>959</ele>
        <time>2015-10-18T02:32:27Z</time>
      </trkpt>
      <trkpt lat="45.80943" lon="2.99365">
        <ele>957</ele>
        <time>2015-10-18T02:34:27Z</time>
      </trkpt>
      <trkpt lat="45.80904" lon="2.99358">
        <ele>958</ele>
        <time>2015-10-18T02:36:27Z</time>
      </trkpt>
      <trkpt lat="45.8087" lon="2.99363">
        <ele>962</ele>
        <time>2015-10-18T02:38:27Z</time>
      </trkpt>
      <trkpt lat="45.80835" lon="2.99371">
        <ele>966</ele>
        <time>2015-10-18T02:40:27Z</time>
      </trkpt>
      <trkpt lat="45.80797" lon="2.99378">
        <ele>968</ele>
        <time>2015-10-18T02:42:27Z</time>
      </trkpt>
      <trkpt lat="45.80738" lon="2.99388">
        <ele>970</ele>
        <time>2015-10-18T02:44:27Z</time>
      </trkpt>
      <trkpt lat="45.80702" lon="2.99386">
        <ele>970</ele>
        <time>2015-10-18T02:46:27Z</time>
      </trkpt>
      <trkpt lat="45.80677" lon="2.9938">
        <ele>969</ele>
        <time>2015-10-18T02:48:27Z</time>
      </trkpt>
      <trkpt lat="45.8065" lon="2.99352">
        <ele>970</ele>
        <time>2015-10-18T02:50:27Z</time>
      </trkpt>
      <trkpt lat="45.8062" lon="2.99322">
        <ele>971</ele>
        <time>2015-10-18T02:52:27Z</time>
      </trkpt>
      <trkpt lat="45.80596" lon="2.99288">
        <ele>973</ele>
        <time>2015-10-18T02:54:27Z</time>
      </trkpt>
      <trkpt lat="45.80568" lon="2.99266">
        <ele>975</ele>
        <time>2015-10-18T02:56:27Z</time>
      </trkpt>
      <trkpt lat="45.80536" lon="2.99247">
        <ele>977</ele>
        <time>2015-10-18T02:58:27Z</time>
      </trkpt>
      <trkpt lat="45.80512" lon="2.99223">
        <ele>978</ele>
        <time>2015-10-18T03:00:27Z</time>
      </trkpt>
      <trkpt lat="45.80491" lon="2.992">
        <ele>979</ele>
        <time>2015-10-18T03:02:27Z</time>
      </trkpt>
      <trkpt lat="45.80461" lon="2.99152">
        <ele>977</ele>
        <time>2015-10-18T03:04:27Z</time>
      </trkpt>
      <trkpt lat="45.80433" lon="2.9911">
        <ele>974</ele>
        <time>2015-10-18T03:06:27Z</time>
      </trkpt>
      <trkpt lat="45.80405" lon="2.9906">
        <ele>972</ele>
        <time>2015-10-18T03:08:27Z</time>
      </trkpt>
      <trkpt lat="45.80406" lon="2.99019">
        <ele>972</ele>
        <time>2015-10-18T03:10:27Z</time>
      </trkpt>
      <trkpt lat="45.80396" lon="2.98938">
        <ele>976</ele>
        <time>2015-10-18T03:12:27Z</time>
      </trkpt>
      <trkpt lat="45.80379" lon="2.98904">
        <ele>977</ele>
        <time>2015-10-18T03:14:27Z</time>
      </trkpt>
      <trkpt lat="45.80366" lon="2.98861">
        <ele>978</ele>
        <time>2015-10-18T03:16:27Z</time>
      </trkpt>
      <trkpt lat="45.80378" lon="2.98807">
        <ele>978</ele>
        <time>2015-10-18T03:18:27Z</time>
      </trkpt>
      <trkpt lat="45.80361" lon="2.98773">
        <ele>977</ele>
        <time>2015-10-18T03:20:27Z</time>
      </trkpt>
      <trkpt lat="45.80324" lon="2.98766">
        <ele>975</ele>
        <time>2015-10-18T03:22:27Z</time>
      </trkpt>
    </trkseg>
  </trk>
</gpx>